createdAt,value
2022-10-20T07:52:18.328Z,15.38
2022-10-20T07:53:19.731Z,15.30
2022-10-20T07:54:21.056Z,15.23
2022-10-20T07:55:38.092Z,14.85
2022-10-20T07:56:42.175Z,15.52
2022-10-20T07:57:43.654Z,14.52
2022-10-20T07:58:47.727Z,15.35
2022-10-20T07:59:49.052Z,14.43
2022-10-20T08:00:50.383Z,12.57
2022-10-20T08:01:54.707Z,15.45
2022-10-20T08:02:58.924Z,14.32
2022-10-20T08:04:00.356Z,13.77
2022-10-20T08:05:01.969Z,12.55
2022-10-20T08:06:04.440Z,13.00
2022-10-20T08:07:05.799Z,12.95
2022-10-20T08:08:07.237Z,12.55
2022-10-20T08:17:11.217Z,11.57
2022-10-20T08:18:20.465Z,13.05
2022-10-20T08:20:39.952Z,12.65
2022-10-20T08:27:02.031Z,11.93
2022-10-20T08:28:03.530Z,12.07
2022-10-20T08:29:04.885Z,12.15
2022-10-20T08:30:22.860Z,12.77
2022-10-20T08:31:25.833Z,12.70
2022-10-20T08:44:06.253Z,10.95
2022-10-20T08:45:13.732Z,11.25
2022-10-20T08:46:20.351Z,11.60
2022-10-20T08:47:33.607Z,11.00
2022-10-20T08:48:35.270Z,10.55
2022-10-20T08:49:37.137Z,11.90
2022-10-20T08:50:44.810Z,10.90
2022-10-20T08:51:46.333Z,10.68
2022-10-20T08:52:56.032Z,10.13
2022-10-20T08:53:59.872Z,11.00
2022-10-20T08:55:05.057Z,10.95
2022-10-20T09:02:59.919Z,10.57
2022-10-20T09:04:15.792Z,9.77
2022-10-20T09:05:23.470Z,10.73
2022-10-20T09:06:25.812Z,10.00
2022-10-20T09:07:31.907Z,10.25
2022-10-20T09:08:37.268Z,11.18
2022-10-20T09:09:39.314Z,10.63
2022-10-20T09:10:49.965Z,9.98
2022-10-20T09:11:52.444Z,10.18
2022-10-20T09:12:53.994Z,10.57
2022-10-20T09:13:55.415Z,10.63
2022-10-20T09:14:57.380Z,11.38
2022-10-20T09:16:18.243Z,10.38
2022-10-20T09:17:28.853Z,10.27
2022-10-20T09:18:31.669Z,9.23
2022-10-20T09:19:33.118Z,9.35
2022-10-20T09:20:42.305Z,9.45
2022-10-20T09:21:45.968Z,9.73
2022-10-20T09:22:47.600Z,9.95
2022-10-20T09:23:52.410Z,10.40
2022-10-20T09:24:57.625Z,8.00
2022-10-20T09:25:58.959Z,9.05
2022-10-20T09:38:29.586Z,10.68
2022-10-20T09:39:54.985Z,10.43
2022-10-20T09:41:10.209Z,10.43
2022-10-20T09:42:15.231Z,11.73
2022-10-20T09:43:18.295Z,10.57
2022-10-20T09:44:24.430Z,11.52
2022-10-20T09:45:31.679Z,11.20
2022-10-20T09:46:43.466Z,10.27
2022-10-20T09:47:48.525Z,10.65
2022-10-20T09:48:51.013Z,10.63
2022-10-20T10:27:31.776Z,11.57
2022-10-20T10:28:40.147Z,12.27
2022-10-20T10:29:41.505Z,11.13
2022-10-20T10:30:46.814Z,10.50
2022-10-20T10:31:56.532Z,11.00
2022-10-20T10:32:57.920Z,10.32
2022-10-20T10:34:25.631Z,11.43
2022-10-20T10:35:37.296Z,9.70
2022-10-20T10:36:38.644Z,10.45
2022-10-20T10:37:43.254Z,10.60
2022-10-20T10:38:45.154Z,11.30
2022-10-20T10:39:46.579Z,10.30
2022-10-20T10:41:00.222Z,10.23
2022-10-20T10:42:19.184Z,9.85
2022-10-20T11:13:07.487Z,9.73
2022-10-20T11:14:22.812Z,11.15
2022-10-20T11:15:46.622Z,9.10
2022-10-20T11:17:00.281Z,9.77
2022-10-20T11:18:16.501Z,11.02
2022-10-20T11:19:26.977Z,10.32
2022-10-20T11:20:37.464Z,12.30
2022-10-20T11:22:05.168Z,11.85
2022-10-20T12:05:49.809Z,11.20
2022-10-20T12:07:01.249Z,11.90
2022-10-20T12:08:41.966Z,12.10
2022-10-20T12:10:02.326Z,11.65
2022-10-20T12:11:26.228Z,11.48
2022-10-20T13:09:09.463Z,9.68
2022-10-20T13:10:39.946Z,9.60
2022-10-20T13:11:45.916Z,8.80
2022-10-20T13:12:47.262Z,10.73
2022-10-20T13:14:01.549Z,10.05
2022-10-20T16:04:28.709Z,6.90
